Amber, Oklahoma
Current Conditions -  °F | °C
As of 8:55 PM on Wednesday 22 Oct 2014 (Local Time) from KRQO Reporting Station
Moderate Rain Moderate Rain  
Wind Chill: 16°   Ceiling: 4500
Heat Index: 16°   Visibility: 7mi
Dew Point: 14°   Wind: 6mph
Humidity: 88%   Direction: 260°W
Pressure: 30.12"   Gusts: NA
Location:  35.16°N, 97.88°W
Report Text: KRQO 230155Z AUTO 26005KT 7SM RA BKN045 OVC050 16/14 A3012 RMK AO2 P0008
Loading
Personal Weather Stations






























Interactive Weather Map
Tropical Storm Tracking
New forecast layout! Learn more

10-Day Weather Forecast

Advertisements
Track Severe Weather on mobile